Time;durP1;ratioP1;P1;durP2;ratioP2;P2;SDS_P1;SDS_P2;PMS_P1;PMS_P2;Temp;Humidity;BMP_temperature;BMP_pressure;BME280_temperature;BME280_humidity;BME280_pressure;Samples;Min_cycle;Max_cycle;Signal;HPM_P1;HPM_P2
2023/03/15 00:00:27;;;;;;;9.57;5.38;;;1.40;99.90;;;;;;5151245;27;20023;-68
2023/03/15 00:02:53;;;;;;;8.60;5.10;;;1.40;99.90;;;;;;5145038;27;20385;-66
2023/03/15 00:05:18;;;;;;;8.70;4.82;;;1.40;99.90;;;;;;5151221;27;20098;-67
2023/03/15 00:07:44;;;;;;;11.85;5.03;;;1.40;99.90;;;;;;5140845;27;20372;-66
2023/03/15 00:10:10;;;;;;;8.88;4.95;;;1.50;99.90;;;;;;5140969;27;20035;-67
2023/03/15 00:12:36;;;;;;;11.02;5.45;;;1.40;99.90;;;;;;5147365;27;20478;-67
2023/03/15 00:15:01;;;;;;;8.63;5.32;;;1.40;99.90;;;;;;5142545;27;20072;-68
2023/03/15 00:17:27;;;;;;;14.52;5.25;;;1.40;99.90;;;;;;5146078;27;20059;-68
2023/03/15 00:19:52;;;;;;;8.43;4.85;;;1.40;99.90;;;;;;5147351;27;20492;-68
2023/03/15 00:22:18;;;;;;;11.23;5.57;;;1.40;99.90;;;;;;5154667;27;20033;-68
2023/03/15 00:24:44;;;;;;;9.65;5.53;;;1.40;99.90;;;;;;5154002;27;20022;-68
2023/03/15 00:27:09;;;;;;;10.10;6.18;;;1.40;99.90;;;;;;5146917;27;20027;-68
2023/03/15 00:29:35;;;;;;;8.07;5.97;;;1.50;99.90;;;;;;5154216;27;20461;-68
2023/03/15 00:32:01;;;;;;;11.80;5.93;;;1.40;99.90;;;;;;5151013;27;20050;-68
2023/03/15 00:34:26;;;;;;;12.45;5.72;;;1.50;99.90;;;;;;5152989;27;20056;-68
2023/03/15 00:36:55;;;;;;;12.07;5.70;;;1.60;99.90;;;;;;5147742;27;20034;-68
2023/03/15 00:39:20;;;;;;;10.50;6.03;;;1.60;99.90;;;;;;5148048;27;20118;-68
2023/03/15 00:41:46;;;;;;;14.00;6.45;;;1.50;99.90;;;;;;5146827;27;20939;-68
2023/03/15 00:44:12;;;;;;;9.20;5.68;;;1.50;99.90;;;;;;5147399;27;20444;-68
2023/03/15 00:46:38;;;;;;;8.85;5.90;;;1.50;99.90;;;;;;5147212;27;20042;-68
2023/03/15 00:49:03;;;;;;;9.50;6.15;;;1.50;99.90;;;;;;5120107;27;20042;-68
2023/03/15 00:51:29;;;;;;;9.18;5.82;;;1.60;99.90;;;;;;5149260;27;20102;-68
2023/03/15 00:53:55;;;;;;;10.77;5.45;;;1.60;99.90;;;;;;5152297;27;20031;-68
2023/03/15 00:56:23;;;;;;;12.18;6.15;;;1.50;99.90;;;;;;5154063;27;20027;-68
2023/03/15 00:58:51;;;;;;;15.77;6.28;;;1.40;99.90;;;;;;5153865;27;20022;-68
2023/03/15 01:01:24;;;;;;;13.68;5.63;;;1.50;99.90;;;;;;5145871;27;20208;-68
2023/03/15 01:03:50;;;;;;;16.48;5.88;;;1.40;99.90;;;;;;5150672;27;20022;-68
2023/03/15 01:06:21;;;;;;;14.35;6.20;;;1.40;99.90;;;;;;5152517;27;20370;-68
2023/03/15 01:08:48;;;;;;;15.80;5.75;;;1.30;99.90;;;;;;5144947;27;20124;-68
2023/03/15 01:11:17;;;;;;;13.40;4.95;;;1.40;99.90;;;;;;5149371;27;20031;-68
2023/03/15 01:13:43;;;;;;;16.30;5.05;;;1.40;99.90;;;;;;5145864;27;20334;-69
2023/03/15 01:16:11;;;;;;;15.07;5.63;;;1.40;99.90;;;;;;5144057;27;20031;-68
2023/03/15 01:18:37;;;;;;;12.68;4.95;;;1.30;99.90;;;;;;5149321;27;20062;-68
2023/03/15 01:21:06;;;;;;;11.40;4.25;;;1.40;99.90;;;;;;5144936;27;20031;-68
2023/03/15 01:23:31;;;;;;;13.07;4.10;;;1.40;99.90;;;;;;5145902;27;20027;-68
2023/03/15 01:26:01;;;;;;;7.40;3.70;;;1.30;99.90;;;;;;5147598;27;20488;-68
2023/03/15 01:28:27;;;;;;;11.05;4.32;;;1.20;99.90;;;;;;5145096;27;20433;-68
2023/03/15 01:30:52;;;;;;;9.07;3.78;;;1.10;99.90;;;;;;5158694;27;20023;-68
2023/03/15 01:33:19;;;;;;;10.50;3.65;;;1.00;99.90;;;;;;5151118;27;20046;-68
2023/03/15 01:35:44;;;;;;;16.88;4.13;;;1.00;99.90;;;;;;5132319;27;20083;-68
2023/03/15 01:38:10;;;;;;;13.65;3.83;;;0.90;99.90;;;;;;5148731;27;20477;-67
2023/03/15 01:40:41;;;;;;;9.57;3.65;;;0.90;99.90;;;;;;5148098;27;20570;-67
2023/03/15 01:43:07;;;;;;;14.60;4.95;;;0.80;99.90;;;;;;5152064;27;20026;-67
2023/03/15 01:46:02;;;;;;;12.63;3.20;;;0.70;99.90;;;;;;5150504;27;20094;-67
2023/03/15 01:48:44;;;;;;;7.85;3.28;;;0.70;99.90;;;;;;5153407;27;20378;-68
2023/03/15 01:51:31;;;;;;;10.82;3.03;;;0.60;99.90;;;;;;5151763;27;20022;-68
2023/03/15 01:54:06;;;;;;;9.13;2.78;;;0.60;99.90;;;;;;5148103;27;20075;-68
2023/03/15 01:56:33;;;;;;;8.20;2.70;;;0.60;99.90;;;;;;5148243;27;20019;-67
2023/03/15 01:59:01;;;;;;;10.02;2.88;;;0.50;99.90;;;;;;5153367;27;20026;-68
2023/03/15 02:01:28;;;;;;;10.27;2.35;;;0.50;99.90;;;;;;5153212;27;20030;-67
2023/03/15 02:04:11;;;;;;;8.68;3.38;;;0.50;99.90;;;;;;5147018;27;20034;-68
2023/03/15 02:06:37;;;;;;;6.25;2.22;;;0.50;99.90;;;;;;5143659;27;20035;-68
2023/03/15 02:09:13;;;;;;;11.88;2.35;;;0.50;99.90;;;;;;5153149;27;20053;-68
2023/03/15 02:11:40;;;;;;;6.43;2.15;;;0.40;99.90;;;;;;5147556;27;20030;-69
2023/03/15 02:14:07;;;;;;;5.75;2.08;;;0.40;99.90;;;;;;5140067;27;20437;-69
2023/03/15 02:16:32;;;;;;;7.57;2.33;;;0.50;99.90;;;;;;5141456;27;20030;-68
2023/03/15 02:18:58;;;;;;;7.32;1.98;;;0.50;99.90;;;;;;5153622;27;20038;-68
2023/03/15 02:21:30;;;;;;;10.82;2.30;;;0.40;99.90;;;;;;5145778;27;20040;-68
2023/03/15 02:24:15;;;;;;;3.70;1.90;;;0.30;99.90;;;;;;5140516;27;20114;-67
2023/03/15 02:26:56;;;;;;;9.35;2.55;;;0.30;99.90;;;;;;5135063;27;20039;-68
2023/03/15 02:29:25;;;;;;;7.72;2.63;;;0.20;99.90;;;;;;5144396;27;20430;-67
2023/03/15 02:31:51;;;;;;;6.57;2.57;;;0.30;99.90;;;;;;5143388;27;20019;-68
2023/03/15 02:34:17;;;;;;;12.32;2.05;;;0.30;99.90;;;;;;5152394;27;20038;-68
2023/03/15 02:36:43;;;;;;;9.48;1.75;;;0.30;99.90;;;;;;5143817;27;20384;-68
2023/03/15 02:39:19;;;;;;;7.68;1.90;;;0.30;99.90;;;;;;5147346;27;20035;-68
2023/03/15 02:41:57;;;;;;;5.32;2.08;;;0.30;99.90;;;;;;5147266;27;20152;-67
2023/03/15 02:44:29;;;;;;;5.82;2.30;;;0.30;99.90;;;;;;5150326;27;20031;-68
2023/03/15 02:46:59;;;;;;;7.97;1.80;;;0.30;99.90;;;;;;5143544;27;20054;-68
2023/03/15 02:49:30;;;;;;;6.47;1.58;;;0.30;99.90;;;;;;5142043;27;20031;-67
2023/03/15 02:51:55;;;;;;;9.20;1.67;;;0.30;99.90;;;;;;5149152;27;20019;-68
2023/03/15 02:54:21;;;;;;;8.02;1.77;;;0.40;99.90;;;;;;5145594;27;20372;-68
2023/03/15 02:56:46;;;;;;;5.50;1.80;;;0.40;99.90;;;;;;5144410;27;20910;-67
2023/03/15 02:59:12;;;;;;;7.38;1.33;;;0.40;99.90;;;;;;5152661;27;20031;-68
2023/03/15 03:01:38;;;;;;;5.63;1.52;;;0.40;99.90;;;;;;5144357;27;20105;-68
2023/03/15 03:04:03;;;;;;;7.88;1.67;;;0.40;99.90;;;;;;5143203;27;20046;-69
2023/03/15 03:06:29;;;;;;;7.63;1.88;;;0.30;99.90;;;;;;5142849;27;20018;-69
2023/03/15 03:08:55;;;;;;;5.65;1.58;;;0.20;99.90;;;;;;5140150;27;20141;-69
2023/03/15 03:11:20;;;;;;;9.18;1.98;;;0.20;99.90;;;;;;5144766;27;20516;-68
2023/03/15 03:13:46;;;;;;;6.75;1.50;;;0.10;99.90;;;;;;5144142;27;20473;-69
2023/03/15 03:16:12;;;;;;;10.00;3.40;;;0.20;99.90;;;;;;5148792;27;20026;-68
2023/03/15 03:18:38;;;;;;;4.72;1.00;;;0.20;99.90;;;;;;5148613;27;20047;-69
2023/03/15 03:21:06;;;;;;;3.15;0.90;;;0.20;99.90;;;;;;5140778;27;20072;-69
2023/03/15 03:23:33;;;;;;;4.57;1.42;;;;;;;;;;5126540;27;20359;-68
2023/03/15 03:25:59;;;;;;;4.80;1.50;;;;;;;;;;5145660;27;20060;-69
2023/03/15 03:28:26;;;;;;;6.22;1.70;;;;;;;;;;5142440;27;20035;-68
2023/03/15 03:30:53;;;;;;;5.60;2.08;;;;;;;;;;5144854;27;20038;-68
2023/03/15 03:33:20;;;;;;;6.10;1.42;;;;;;;;;;5151836;27;20093;-70
2023/03/15 03:35:46;;;;;;;9.43;1.88;;;;;;;;;;5146959;27;20061;-69
2023/03/15 03:38:12;;;;;;;10.18;1.85;;;;;;;;;;5144875;27;20381;-69
2023/03/15 03:40:38;;;;;;;7.25;1.40;;;;;;;;;;5150070;27;20037;-68
2023/03/15 03:43:04;;;;;;;5.93;1.50;;;;;;;;;;5143444;27;20023;-68
2023/03/15 03:45:30;;;;;;;6.65;1.27;;;;;;;;;;5143166;27;20052;-68
2023/03/15 03:47:56;;;;;;;9.68;1.98;;;;;;;;;;5143893;27;20026;-68
2023/03/15 03:50:22;;;;;;;6.75;1.80;;;;;;;;;;5154635;27;20045;-68
2023/03/15 03:52:48;;;;;;;10.77;1.80;;;;;;;;;;5154778;27;20026;-68
2023/03/15 03:55:14;;;;;;;9.85;2.67;;;;;;;;;;5155068;27;20037;-68
2023/03/15 03:57:41;;;;;;;6.80;2.58;;;;;;;;;;5157766;27;20025;-68
2023/03/15 04:00:08;;;;;;;9.00;2.22;;;;;;;;;;5155721;27;20035;-68
2023/03/15 04:02:34;;;;;;;11.32;2.53;;;;;;;;;;5154919;27;20107;-68
2023/03/15 04:05:00;;;;;;;17.40;3.05;;;;;;;;;;5146500;27;20373;-68
2023/03/15 04:07:26;;;;;;;8.40;2.28;;;;;;;;;;5155038;27;20023;-68
2023/03/15 04:09:52;;;;;;;8.68;2.67;;;;;;;;;;5148452;27;20049;-69
2023/03/15 04:12:18;;;;;;;6.88;2.28;;;;;;;;;;5139187;27;20026;-68
2023/03/15 04:14:44;;;;;;;14.02;2.80;;;;;;;;;;5145415;27;20037;-68
2023/03/15 04:17:11;;;;;;;8.90;2.40;;;;;;;;;;5149322;27;20034;-68
2023/03/15 04:19:37;;;;;;;10.93;2.97;;;;;;;;;;5155817;27;20022;-68
2023/03/15 04:22:09;;;;;;;4.45;2.30;;;;;;;;;;5157271;27;20122;-68
2023/03/15 04:24:35;;;;;;;7.53;2.05;;;;;;;;;;5155538;27;20349;-68
2023/03/15 04:27:01;;;;;;;6.93;2.50;;;;;;;;;;5156415;27;20027;-68
2023/03/15 04:29:28;;;;;;;7.80;2.17;;;;;;;;;;5149986;27;20050;-68
2023/03/15 04:32:00;;;;;;;9.80;2.40;;;;;;;;;;5154887;27;20029;-68
2023/03/15 04:34:29;;;;;;;10.07;2.40;;;;;;;;;;5149484;27;20071;-68
2023/03/15 04:36:55;;;;;;;9.57;2.70;;;;;;;;;;5155211;27;20019;-68
2023/03/15 04:39:22;;;;;;;10.20;2.67;;;;;;;;;;5147206;27;20488;-68
2023/03/15 04:41:48;;;;;;;8.52;2.70;;;;;;;;;;5149490;27;20042;-68
2023/03/15 04:44:15;;;;;;;14.73;3.00;;;;;;;;;;5151085;27;20034;-68
2023/03/15 04:46:41;;;;;;;5.38;2.25;;;;;;;;;;5152716;27;20078;-68
2023/03/15 04:49:07;;;;;;;10.70;2.85;;;;;;;;;;5153637;27;20537;-69
2023/03/15 04:51:33;;;;;;;8.98;2.95;;;;;;;;;;5147294;27;20381;-68
2023/03/15 04:53:59;;;;;;;12.93;3.60;;;;;;;;;;5152884;27;20370;-68
2023/03/15 04:56:25;;;;;;;7.30;2.88;;;;;;;;;;5150470;27;20024;-68
2023/03/15 04:58:51;;;;;;;8.95;2.83;;;;;;;;;;5146123;27;20037;-68
2023/03/15 05:01:17;;;;;;;8.65;2.70;;;;;;;;;;5149631;27;20105;-67
2023/03/15 05:03:44;;;;;;;10.80;3.75;;;;;;;;;;5149975;27;20022;-67
2023/03/15 05:06:10;;;;;;;11.73;3.55;;;;;;;;;;5140832;27;20015;-68
2023/03/15 05:08:36;;;;;;;8.02;2.88;;;;;;;;;;5144001;27;20031;-68
2023/03/15 05:11:03;;;;;;;8.38;2.53;;;;;;;;;;5147650;27;20038;-69
2023/03/15 05:13:29;;;;;;;14.30;3.60;;;;;;;;;;5146110;27;20023;-69
2023/03/15 05:15:55;;;;;;;11.00;2.72;;;;;;;;;;5143306;27;20087;-68
2023/03/15 05:18:22;;;;;;;8.02;2.72;;;;;;;;;;5146932;27;20038;-68
2023/03/15 05:20:48;;;;;;;8.20;2.67;;;;;;;;;;5145066;27;20102;-68
2023/03/15 05:23:14;;;;;;;12.05;2.97;;;;;;;;;;5144153;27;20130;-68
2023/03/15 05:25:40;;;;;;;8.65;2.47;;;;;;;;;;5146750;27;20030;-68
2023/03/15 05:28:06;;;;;;;10.90;3.15;;;;;;;;;;5150080;27;20027;-68
2023/03/15 05:30:32;;;;;;;9.18;2.55;;;;;;;;;;5147483;27;20022;-68
2023/03/15 05:32:58;;;;;;;9.32;2.83;;;;;;;;;;5146047;27;20035;-69
2023/03/15 05:35:25;;;;;;;10.00;2.92;;;;;;;;;;5143384;27;20018;-69
2023/03/15 05:37:55;;;;;;;14.88;2.80;;;;;;;;;;5146623;27;20214;-68
2023/03/15 05:40:21;;;;;;;10.43;2.28;;;;;;;;;;5145705;27;20026;-68
2023/03/15 05:42:47;;;;;;;12.63;2.65;;;;;;;;;;5146909;27;20052;-68
2023/03/15 05:45:13;;;;;;;10.27;2.75;;;;;;;;;;5148544;27;20051;-68
2023/03/15 05:47:39;;;;;;;6.05;2.17;;;;;;;;;;5145515;27;20115;-68
2023/03/15 05:50:05;;;;;;;8.98;2.60;;;;;;;;;;5153467;27;20079;-68
2023/03/15 05:52:31;;;;;;;14.90;2.92;;;;;;;;;;5148635;27;20030;-69
2023/03/15 05:54:57;;;;;;;11.57;2.13;;;;;;;;;;5152331;27;20023;-70
2023/03/15 05:57:23;;;;;;;10.82;2.22;;;;;;;;;;5153582;27;20489;-70
2023/03/15 05:59:49;;;;;;;14.18;2.25;;;;;;;;;;5139463;27;20034;-69
2023/03/15 06:02:15;;;;;;;9.02;2.22;;;;;;;;;;5148597;27;20460;-69
2023/03/15 06:04:41;;;;;;;9.80;2.05;;;;;;;;;;5152163;27;20131;-70
2023/03/15 06:07:07;;;;;;;12.45;3.45;;;;;;;;;;5146651;27;20581;-71
2023/03/15 06:09:33;;;;;;;8.75;2.80;;;;;;;;;;5143237;27;20030;-67
2023/03/15 06:11:59;;;;;;;6.65;2.30;;;;;;;;;;5142600;27;20558;-67
2023/03/15 06:14:32;;;;;;;14.43;2.40;;;;;;;;;;5142408;27;20062;-68
2023/03/15 06:16:58;;;;;;;10.35;2.60;;;;;;;;;;5126446;27;20041;-68
2023/03/15 06:19:24;;;;;;;10.80;2.30;;;;;;;;;;5147765;27;20019;-68
2023/03/15 06:21:50;;;;;;;9.27;2.03;;;;;;;;;;5144956;27;20361;-67
2023/03/15 06:24:16;;;;;;;9.13;2.75;;;;;;;;;;5148084;27;20035;-69
2023/03/15 06:26:42;;;;;;;8.40;2.67;;;;;;;;;;5137506;27;20031;-66
2023/03/15 06:29:08;;;;;;;12.38;3.08;;;;;;;;;;5145060;27;20047;-66
2023/03/15 06:31:34;;;;;;;13.73;3.03;;;;;;;;;;5148588;27;20033;-67
2023/03/15 06:34:00;;;;;;;12.60;2.83;;;;;;;;;;5145318;27;20027;-66
2023/03/15 06:36:26;;;;;;;8.05;2.25;;;;;;;;;;5139326;27;20415;-67
2023/03/15 06:38:53;;;;;;;7.93;2.75;;;;;;;;;;5138902;27;20035;-67
2023/03/15 06:41:20;;;;;;;13.60;2.60;;;;;;;;;;5139090;27;21535;-67
2023/03/15 06:43:46;;;;;;;10.82;2.10;;;;;;;;;;5145125;27;20117;-67
2023/03/15 06:46:12;;;;;;;9.20;2.58;;;;;;;;;;5151104;27;20038;-68
2023/03/15 06:48:38;;;;;;;8.48;2.40;;;;;;;;;;5146335;27;20055;-68
2023/03/15 06:51:05;;;;;;;12.50;2.92;;;;;;;;;;5147844;27;20113;-68
2023/03/15 06:53:31;;;;;;;9.93;2.38;;;;;;;;;;5136798;27;20778;-67
2023/03/15 06:55:57;;;;;;;5.60;1.95;;;;;;;;;;5146243;27;20075;-70
2023/03/15 06:58:23;;;;;;;8.20;3.10;;;;;;;;;;5144445;27;20036;-68
2023/03/15 07:00:49;;;;;;;8.55;2.15;;;;;;;;;;5140015;27;20654;-68
2023/03/15 07:03:15;;;;;;;7.00;1.73;;;;;;;;;;5144891;27;20429;-68
2023/03/15 07:05:41;;;;;;;10.77;2.58;;;;;;;;;;5145776;27;20049;-68
2023/03/15 07:08:07;;;;;;;9.50;2.20;;;;;;;;;;5146355;27;20058;-67
2023/03/15 07:10:34;;;;;;;12.63;2.50;;;;;;;;;;5149717;27;20106;-69
2023/03/15 07:13:00;;;;;;;11.93;2.42;;;;;;;;;;5145158;27;20015;-69
2023/03/15 07:15:27;;;;;;;9.88;2.17;;;;;;;;;;5144704;27;20023;-69
2023/03/15 07:17:53;;;;;;;10.45;2.72;;;;;;;;;;5143500;27;20050;-68
2023/03/15 07:20:19;;;;;;;9.02;2.17;;;;;;;;;;5149059;27;20019;-68
2023/03/15 07:22:45;;;;;;;9.02;1.92;;;;;;;;;;5137440;27;20500;-68
2023/03/15 07:25:11;;;;;;;8.98;2.25;;;;;;;;;;5142529;27;20020;-67
2023/03/15 07:27:37;;;;;;;7.43;2.10;;;;;;;;;;5148442;27;20027;-68
2023/03/15 07:30:03;;;;;;;12.82;2.28;;;;;;;;;;5140709;27;20430;-67
2023/03/15 07:32:30;;;;;;;15.55;2.13;;;;;;;;;;5147424;27;20019;-68
2023/03/15 07:34:59;;;;;;;14.27;2.20;;;;;;;;;;5145661;27;20026;-68
2023/03/15 07:37:25;;;;;;;8.90;1.92;;;;;;;;;;5138761;27;20021;-67
2023/03/15 07:39:51;;;;;;;12.70;2.30;;;;;;;;;;5149845;27;20248;-68
2023/03/15 07:42:17;;;;;;;14.50;2.42;;;;;;;;;;5149872;27;20025;-67
2023/03/15 07:44:43;;;;;;;10.57;2.13;;;;;;;;;;5151176;27;20057;-67
2023/03/15 07:47:09;;;;;;;13.60;2.08;;;;;;;;;;5146628;27;20532;-67
2023/03/15 07:49:35;;;;;;;5.10;2.00;;;;;;;;;;5145970;27;20106;-67
2023/03/15 07:52:02;;;;;;;9.63;2.13;;;;;;;;;;5140669;27;20103;-68
2023/03/15 07:54:30;;;;;;;8.52;1.63;;;;;;;;;;5147981;27;20022;-68
2023/03/15 07:56:56;;;;;;;10.82;1.75;;;;;;;;;;5114164;28;20381;-68
2023/03/15 07:59:22;;;;;;;7.47;1.75;;;;;;;;;;5135736;27;20031;-68
2023/03/15 08:01:48;;;;;;;8.90;1.65;;;;;;;;;;5149343;27;20038;-67
2023/03/15 08:04:14;;;;;;;7.18;2.17;;;;;;;;;;5143539;27;20102;-68
2023/03/15 08:06:40;;;;;;;8.02;2.40;;;;;;;;;;5146040;27;20075;-68
2023/03/15 08:09:06;;;;;;;10.45;2.13;;;;;;;;;;5146536;27;20491;-68
2023/03/15 08:11:32;;;;;;;11.13;1.85;;;;;;;;;;5148733;27;20019;-68
2023/03/15 08:13:58;;;;;;;9.07;2.00;;;;;;;;;;5150980;27;20385;-68
2023/03/15 08:16:24;;;;;;;6.82;1.92;;;;;;;;;;5150299;27;20023;-68
2023/03/15 08:18:50;;;;;;;5.43;2.38;;;;;;;;;;5150761;27;20027;-70
2023/03/15 08:21:16;;;;;;;13.50;2.20;;;;;;;;;;5147951;27;20027;-68
2023/03/15 08:23:42;;;;;;;8.70;1.48;;;;;;;;;;5139557;27;20037;-67
2023/03/15 08:26:08;;;;;;;8.50;1.80;;;;;;;;;;5141073;27;20496;-68
2023/03/15 08:28:34;;;;;;;5.28;1.35;;;;;;;;;;5146473;27;20077;-68
2023/03/15 08:31:00;;;;;;;12.38;1.70;;;;;;;;;;5150809;27;20035;-68
2023/03/15 08:33:29;;;;;;;5.30;1.63;;;;;;;;;;5150646;27;20037;-68
2023/03/15 08:35:55;;;;;;;5.55;1.65;;;;;;;;;;5148294;27;20036;-68
2023/03/15 08:38:21;;;;;;;3.28;1.67;;;;;;;;;;5154414;27;20030;-68
2023/03/15 08:40:47;;;;;;;6.18;1.70;;;;;;;;;;5141342;27;20023;-68
2023/03/15 08:43:12;;;;;;;12.82;2.10;;;4.30;99.90;;;;;;5148879;27;20097;-69
2023/03/15 08:45:38;;;;;;;7.50;1.40;;;4.40;99.90;;;;;;5145332;27;20050;-68
2023/03/15 08:48:04;;;;;;;4.53;1.60;;;4.50;99.90;;;;;;5150253;27;20083;-68
2023/03/15 08:50:32;;;;;;;8.48;2.10;;;4.70;99.90;;;;;;5147661;27;20036;-68
2023/03/15 08:52:58;;;;;;;11.07;1.95;;;4.90;99.90;;;;;;5147853;27;20041;-68
2023/03/15 08:55:23;;;;;;;7.15;1.90;;;5.00;99.90;;;;;;5147436;27;20027;-68
2023/03/15 08:57:49;;;;;;;6.55;1.73;;;5.10;99.90;;;;;;5149412;27;20613;-68
2023/03/15 09:00:19;;;;;;;10.05;1.67;;;5.20;99.90;;;;;;5150608;27;20041;-69
2023/03/15 09:02:47;;;;;;;6.93;1.50;;;5.30;99.90;;;;;;5141764;27;20035;-68
2023/03/15 09:05:14;;;;;;;7.25;1.85;;;5.50;99.90;;;;;;5151184;27;20403;-68
2023/03/15 09:07:41;;;;;;;5.15;1.63;;;5.60;99.90;;;;;;5152429;27;20029;-68
2023/03/15 09:10:08;;;;;;;13.07;1.98;;;5.70;99.90;;;;;;5141972;27;20035;-68
2023/03/15 09:12:34;;;;;;;7.82;1.90;;;5.80;99.90;;;;;;5146735;27;20020;-68
2023/03/15 09:14:59;;;;;;;11.73;2.78;;;5.80;99.90;;;;;;5143038;27;20072;-68
2023/03/15 09:17:25;;;;;;;4.15;1.55;;;5.80;99.90;;;;;;5148214;27;20079;-68
2023/03/15 09:19:51;;;;;;;5.00;1.60;;;5.90;99.90;;;;;;5146489;27;20716;-68
2023/03/15 09:22:17;;;;;;;11.48;1.67;;;5.90;99.90;;;;;;5153735;27;20431;-68
2023/03/15 09:24:42;;;;;;;6.38;1.52;;;6.00;99.90;;;;;;5143023;27;20520;-68
2023/03/15 09:27:10;;;;;;;8.57;2.10;;;6.10;99.90;;;;;;5146782;27;20038;-68
2023/03/15 09:29:36;;;;;;;5.63;1.75;;;6.20;99.90;;;;;;5152020;27;20477;-68
2023/03/15 09:32:02;;;;;;;5.93;1.48;;;6.50;99.90;;;;;;5153820;27;20068;-68
2023/03/15 09:34:28;;;;;;;8.45;2.28;;;6.70;99.90;;;;;;5149919;27;20030;-68
2023/03/15 09:36:53;;;;;;;9.00;2.88;;;6.60;99.90;;;;;;5152803;27;20029;-69
2023/03/15 09:39:20;;;;;;;8.18;1.70;;;6.60;99.90;;;;;;5152294;27;20456;-67
2023/03/15 09:41:52;;;;;;;9.27;1.85;;;6.60;99.90;;;;;;5149751;27;20023;-68
2023/03/15 09:44:23;;;;;;;8.48;1.67;;;6.60;99.90;;;;;;5150589;27;20033;-69
2023/03/15 09:47:07;;;;;;;6.25;1.50;;;6.70;99.90;;;;;;5145942;27;20042;-67
2023/03/15 09:49:41;;;;;;;10.43;2.00;;;6.90;99.90;;;;;;5149230;27;20023;-68
2023/03/15 09:52:29;;;;;;;6.22;1.50;;;6.90;99.90;;;;;;5160395;27;20130;-68
2023/03/15 09:55:17;;;;;;;3.55;1.30;;;6.90;99.90;;;;;;5138415;27;20027;-68
2023/03/15 09:57:55;;;;;;;9.50;1.98;;;6.70;99.90;;;;;;5125713;27;20457;-68
2023/03/15 10:00:52;;;;;;;7.20;1.60;;;6.70;99.90;;;;;;5142764;27;20072;-68
2023/03/15 10:03:26;;;;;;;5.50;1.27;;;6.60;99.90;;;;;;5147158;27;20066;-68
2023/03/15 10:05:56;;;;;;;5.10;1.13;;;6.50;99.90;;;;;;5146283;27;20019;-69
2023/03/15 10:08:23;;;;;;;2.95;1.15;;;6.60;99.90;;;;;;5136739;27;20110;-68
2023/03/15 10:11:02;;;;;;;6.32;1.60;;;6.60;99.90;;;;;;5141721;27;20449;-68
2023/03/15 10:14:00;;;;;;;3.72;1.10;;;6.60;99.90;;;;;;5135661;27;20497;-68
2023/03/15 10:16:31;;;;;;;4.97;1.52;;;6.80;99.90;;;;;;5147039;27;20053;-69
2023/03/15 10:19:06;;;;;;;9.43;1.30;;;7.00;99.90;;;;;;5153014;27;20043;-68
2023/03/15 10:21:50;;;;;;;4.60;1.27;;;7.20;99.30;;;;;;5142696;27;20037;-68
2023/03/15 10:24:28;;;;;;;4.38;1.10;;;7.50;99.10;;;;;;5152134;27;20023;-68
2023/03/15 10:26:57;;;;;;;5.97;1.33;;;7.60;99.70;;;;;;5140334;27;20114;-68
2023/03/15 10:29:25;;;;;;;4.22;0.82;;;7.90;98.60;;;;;;5148082;27;20035;-68
2023/03/15 10:31:53;;;;;;;6.63;1.00;;;7.90;97.70;;;;;;5142780;27;20026;-68
2023/03/15 10:34:18;;;;;;;5.25;1.02;;;7.80;97.70;;;;;;5147258;27;20079;-68
2023/03/15 10:36:53;;;;;;;4.82;1.00;;;7.80;97.90;;;;;;5150928;27;20030;-68
2023/03/15 10:39:19;;;;;;;5.82;1.17;;;7.70;97.60;;;;;;5140804;27;20038;-68
2023/03/15 10:41:47;;;;;;;2.13;0.90;;;7.60;97.40;;;;;;5145474;27;20102;-68
2023/03/15 10:44:19;;;;;;;6.93;1.33;;;7.60;97.10;;;;;;5146691;27;20767;-68
2023/03/15 10:47:11;;;;;;;5.00;1.05;;;7.80;96.90;;;;;;5142969;27;20046;-68
2023/03/15 10:49:38;;;;;;;4.30;0.88;;;8.10;96.40;;;;;;5128289;27;20609;-68
2023/03/15 10:52:04;;;;;;;9.63;1.20;;;8.20;95.60;;;;;;5149439;27;20062;-68
2023/03/15 10:54:34;;;;;;;4.97;1.20;;;8.10;95.50;;;;;;5152465;27;20031;-68
2023/03/15 10:57:27;;;;;;;6.47;1.00;;;8.10;96.00;;;;;;5151180;27;20481;-68
2023/03/15 11:00:24;;;;;;;4.60;1.40;;;8.20;96.20;;;;;;5139432;27;20097;-68
2023/03/15 11:03:00;;;;;;;4.22;1.20;;;8.40;95.30;;;;;;5136315;27;20035;-68
2023/03/15 11:05:49;;;;;;;3.35;1.00;;;8.40;95.10;;;;;;5137412;27;20027;-69
2023/03/15 11:08:18;;;;;;;5.55;1.35;;;8.30;95.20;;;;;;5140300;27;20131;-68
2023/03/15 11:10:46;;;;;;;5.68;1.15;;;8.20;95.30;;;;;;5134708;27;20504;-68
2023/03/15 11:13:19;;;;;;;3.33;0.90;;;8.00;95.90;;;;;;5145415;27;20022;-69
2023/03/15 11:16:11;;;;;;;6.47;0.90;;;7.80;96.60;;;;;;5142218;27;20031;-70
2023/03/15 11:18:47;;;;;;;4.88;0.90;;;7.60;96.60;;;;;;5151143;27;20030;-69
2023/03/15 11:21:15;;;;;;;3.22;0.70;;;7.50;96.00;;;;;;5143663;27;20043;-70
2023/03/15 11:23:47;;;;;;;4.28;0.90;;;7.40;96.90;;;;;;5150741;27;20026;-69
2023/03/15 11:26:18;;;;;;;3.33;0.98;;;7.30;97.00;;;;;;5151437;27;20034;-70
2023/03/15 11:28:51;;;;;;;2.15;0.80;;;7.30;96.80;;;;;;5150091;27;20060;-69
2023/03/15 11:31:20;;;;;;;3.67;0.73;;;7.20;97.00;;;;;;5147723;27;20464;-69
2023/03/15 11:34:12;;;;;;;3.78;0.70;;;7.20;97.30;;;;;;5144358;27;20421;-70
2023/03/15 11:36:42;;;;;;;4.07;0.80;;;7.30;96.60;;;;;;5149412;27;20031;-70
2023/03/15 11:39:12;;;;;;;2.22;0.95;;;7.40;96.90;;;;;;5151670;27;20041;-70
2023/03/15 11:41:45;;;;;;;7.15;1.27;;;7.40;96.30;;;;;;5144932;27;20030;-71
2023/03/15 11:44:53;;;;;;;3.97;0.80;;;7.60;95.90;;;;;;5138361;27;20058;-70
2023/03/15 11:47:37;;;;;;;2.92;0.68;;;7.70;95.80;;;;;;5061446;28;20471;-70
2023/03/15 11:50:03;;;;;;;2.95;1.33;;;7.70;95.70;;;;;;5079911;28;20240;-70
2023/03/15 11:52:29;;;;;;;4.68;1.00;;;7.80;95.40;;;;;;5064061;28;20051;-70
2023/03/15 11:54:58;;;;;;;2.70;0.82;;;7.80;95.20;;;;;;5064577;28;20042;-70
2023/03/15 11:57:44;;;;;;;2.75;0.95;;;7.90;95.70;;;;;;5063591;28;20466;-70
2023/03/15 12:00:44;;;;;;;2.65;0.90;;;7.90;93.10;;;;;;5068927;28;20037;-70
2023/03/15 12:03:28;;;;;;;2.35;0.60;;;8.00;92.80;;;;;;5067490;28;20041;-70
2023/03/15 12:06:03;;;;;;;6.32;1.10;;;7.90;92.20;;;;;;5068529;28;20233;-70
2023/03/15 12:08:33;;;;;;;3.67;0.80;;;7.80;91.70;;;;;;5076400;28;20119;-70
2023/03/15 12:11:00;;;;;;;2.47;0.90;;;7.70;92.20;;;;;;5070437;28;20487;-70
2023/03/15 12:13:28;;;;;;;1.17;0.38;;;7.70;92.40;;;;;;5071680;28;20108;-69
2023/03/15 12:15:55;;;;;;;1.45;0.50;;;7.80;91.60;;;;;;5084681;28;20029;-70
2023/03/15 12:18:30;;;;;;;6.00;0.50;;;7.90;91.70;;;;;;5107728;27;20235;-70
2023/03/15 12:21:17;;;;;;;3.13;0.82;;;8.00;91.40;;;;;;5147045;27;20026;-70
2023/03/15 12:23:47;;;;;;;4.88;0.85;;;7.90;92.00;;;;;;5144336;27;20101;-70
2023/03/15 12:26:30;;;;;;;4.50;0.80;;;7.90;92.30;;;;;;5145898;27;20027;-70
2023/03/15 12:28:59;;;;;;;1.70;0.68;;;8.00;92.60;;;;;;5145130;27;20027;-70
2023/03/15 12:31:26;;;;;;;3.58;0.63;;;8.10;92.30;;;;;;5149048;27;20025;-70
2023/03/15 12:33:57;;;;;;;3.70;0.60;;;8.30;92.10;;;;;;5150014;27;20027;-70
2023/03/15 12:36:47;;;;;;;2.75;0.65;;;8.40;92.00;;;;;;5146225;27;20027;-70
2023/03/15 12:39:15;;;;;;;2.00;0.70;;;8.50;92.30;;;;;;5151104;27;20156;-69
2023/03/15 12:41:45;;;;;;;2.22;0.70;;;8.50;92.20;;;;;;5152232;27;20667;-69
2023/03/15 12:44:45;;;;;;;2.53;0.70;;;8.60;92.40;;;;;;5147446;27;20092;-70
2023/03/15 12:47:11;;;;;;;3.85;0.70;;;8.70;92.30;;;;;;5149440;27;20043;-70
2023/03/15 12:49:43;;;;;;;4.57;0.88;;;8.70;92.00;;;;;;5146473;27;20071;-69
2023/03/15 12:52:14;;;;;;;7.45;0.82;;;8.70;91.60;;;;;;5150922;27;20038;-69
2023/03/15 12:54:45;;;;;;;2.97;0.60;;;8.70;92.20;;;;;;5145547;27;20023;-69
2023/03/15 12:57:20;;;;;;;3.75;0.90;;;8.70;92.00;;;;;;5152169;27;20477;-69
2023/03/15 13:00:26;;;;;;;2.58;0.90;;;8.60;92.20;;;;;;5151228;27;20088;-69
2023/03/15 13:03:07;;;;;;;5.00;1.20;;;8.60;93.00;;;;;;5044845;28;20108;-69
2023/03/15 13:05:39;;;;;;;4.18;2.00;;;8.70;93.50;;;;;;5137404;27;20047;-70
2023/03/15 13:08:13;;;;;;;3.85;1.50;;;8.60;96.40;;;;;;5150751;27;20015;-69
2023/03/15 13:10:50;;;;;;;3.47;1.10;;;8.20;98.90;;;;;;5152301;27;20584;-69
2023/03/15 13:13:31;;;;;;;4.50;1.40;;;7.90;99.90;;;;;;5147489;27;20026;-67
2023/03/15 13:16:24;;;;;;;3.45;1.60;;;7.60;99.90;;;;;;5142432;27;20031;-67
2023/03/15 13:19:04;;;;;;;3.13;1.23;;;7.50;99.90;;;;;;5141108;27;20506;-66
2023/03/15 13:21:41;;;;;;;3.95;1.00;;;7.50;99.90;;;;;;5132332;27;20049;-66
2023/03/15 13:24:15;;;;;;;2.65;1.05;;;7.80;99.90;;;;;;5150020;27;20115;-66
2023/03/15 13:26:59;;;;;;;3.67;1.17;;;8.40;99.90;;;;;;5139855;27;20022;-66
2023/03/15 13:29:32;;;;;;;5.95;1.52;;;9.10;99.90;;;;;;5148910;27;20354;-67
2023/03/15 13:32:08;;;;;;;4.32;1.30;;;9.70;99.90;;;;;;5153932;27;20049;-66
2023/03/15 13:34:34;;;;;;;3.45;1.25;;;9.60;99.90;;;;;;5152117;27;20023;-66
2023/03/15 13:37:01;;;;;;;3.88;1.40;;;9.30;99.90;;;;;;5146795;27;20055;-66
2023/03/15 13:39:27;;;;;;;3.15;1.45;;;9.20;99.90;;;;;;5146180;27;20034;-66
2023/03/15 13:41:58;;;;;;;4.78;0.90;;;8.90;99.90;;;;;;5150093;27;20027;-66
2023/03/15 13:44:24;;;;;;;2.65;1.33;;;8.70;99.90;;;;;;5149861;27;20056;-66